sensor_id;sensor_type;location;lat;lon;timestamp;P1;durP1;ratioP1;P2;durP2;ratioP2
2658;SDS011;1339;53.304;10.406;2023-03-14T00:01:12;4.18;;;1.98;;
2658;SDS011;1339;53.304;10.406;2023-03-14T00:03:39;4.10;;;3.08;;
2658;SDS011;1339;53.304;10.406;2023-03-14T00:06:07;1.95;;;1.63;;
2658;SDS011;1339;53.304;10.406;2023-03-14T00:08:34;2.50;;;2.30;;
2658;SDS011;1339;53.304;10.406;2023-03-14T00:11:04;3.40;;;1.88;;
2658;SDS011;1339;53.304;10.406;2023-03-14T00:13:32;5.03;;;2.10;;
2658;SDS011;1339;53.304;10.406;2023-03-14T00:16:01;1.60;;;1.50;;
2658;SDS011;1339;53.304;10.406;2023-03-14T00:18:29;2.17;;;1.98;;
2658;SDS011;1339;53.304;10.406;2023-03-14T00:20:57;1.60;;;1.50;;
2658;SDS011;1339;53.304;10.406;2023-03-14T00:23:24;2.95;;;1.90;;
2658;SDS011;1339;53.304;10.406;2023-03-14T00:25:51;4.90;;;1.90;;
2658;SDS011;1339;53.304;10.406;2023-03-14T00:28:18;2.03;;;1.58;;
2658;SDS011;1339;53.304;10.406;2023-03-14T00:30:45;4.20;;;2.28;;
2658;SDS011;1339;53.304;10.406;2023-03-14T00:33:11;2.00;;;1.80;;
2658;SDS011;1339;53.304;10.406;2023-03-14T00:35:40;2.40;;;1.50;;
2658;SDS011;1339;53.304;10.406;2023-03-14T00:38:07;4.22;;;2.08;;
2658;SDS011;1339;53.304;10.406;2023-03-14T00:40:34;3.47;;;2.13;;
2658;SDS011;1339;53.304;10.406;2023-03-14T00:43:05;2.78;;;1.95;;
2658;SDS011;1339;53.304;10.406;2023-03-14T00:45:32;3.72;;;2.38;;
2658;SDS011;1339;53.304;10.406;2023-03-14T00:48:00;2.90;;;2.58;;
2658;SDS011;1339;53.304;10.406;2023-03-14T00:50:26;3.42;;;2.50;;
2658;SDS011;1339;53.304;10.406;2023-03-14T00:52:55;5.50;;;2.83;;
2658;SDS011;1339;53.304;10.406;2023-03-14T00:55:22;2.92;;;2.45;;
2658;SDS011;1339;53.304;10.406;2023-03-14T00:57:49;4.85;;;2.30;;
2658;SDS011;1339;53.304;10.406;2023-03-14T01:00:16;6.43;;;3.58;;
2658;SDS011;1339;53.304;10.406;2023-03-14T01:02:43;6.50;;;3.78;;
2658;SDS011;1339;53.304;10.406;2023-03-14T01:05:10;2.47;;;2.28;;
2658;SDS011;1339;53.304;10.406;2023-03-14T01:07:37;3.22;;;2.13;;
2658;SDS011;1339;53.304;10.406;2023-03-14T01:10:06;3.60;;;1.92;;
2658;SDS011;1339;53.304;10.406;2023-03-14T01:12:33;5.75;;;2.78;;
2658;SDS011;1339;53.304;10.406;2023-03-14T01:15:00;3.67;;;2.55;;
2658;SDS011;1339;53.304;10.406;2023-03-14T01:17:27;3.08;;;2.00;;
2658;SDS011;1339;53.304;10.406;2023-03-14T01:19:54;5.43;;;3.03;;
2658;SDS011;1339;53.304;10.406;2023-03-14T01:22:21;7.25;;;3.65;;
2658;SDS011;1339;53.304;10.406;2023-03-14T01:24:48;4.82;;;2.78;;
2658;SDS011;1339;53.304;10.406;2023-03-14T01:27:16;3.10;;;2.45;;
2658;SDS011;1339;53.304;10.406;2023-03-14T01:29:43;4.93;;;4.50;;
2658;SDS011;1339;53.304;10.406;2023-03-14T01:32:12;6.32;;;2.35;;
2658;SDS011;1339;53.304;10.406;2023-03-14T01:34:39;4.60;;;3.15;;
2658;SDS011;1339;53.304;10.406;2023-03-14T01:37:06;7.22;;;3.30;;
2658;SDS011;1339;53.304;10.406;2023-03-14T01:39:33;4.63;;;3.33;;
2658;SDS011;1339;53.304;10.406;2023-03-14T01:42:00;3.53;;;3.05;;
2658;SDS011;1339;53.304;10.406;2023-03-14T01:47:10;3.97;;;2.35;;
2658;SDS011;1339;53.304;10.406;2023-03-14T01:49:37;3.03;;;2.72;;
2658;SDS011;1339;53.304;10.406;2023-03-14T01:52:05;4.18;;;3.10;;
2658;SDS011;1339;53.304;10.406;2023-03-14T01:54:33;4.15;;;2.95;;
2658;SDS011;1339;53.304;10.406;2023-03-14T01:57:03;3.97;;;2.38;;
2658;SDS011;1339;53.304;10.406;2023-03-14T01:59:31;4.63;;;2.58;;
2658;SDS011;1339;53.304;10.406;2023-03-14T02:01:59;5.63;;;4.78;;
2658;SDS011;1339;53.304;10.406;2023-03-14T02:04:28;5.45;;;2.65;;
2658;SDS011;1339;53.304;10.406;2023-03-14T02:06:58;9.07;;;3.40;;
2658;SDS011;1339;53.304;10.406;2023-03-14T02:09:26;2.95;;;2.10;;
2658;SDS011;1339;53.304;10.406;2023-03-14T02:11:53;3.50;;;2.55;;
2658;SDS011;1339;53.304;10.406;2023-03-14T02:14:25;3.40;;;2.65;;
2658;SDS011;1339;53.304;10.406;2023-03-14T02:16:55;5.32;;;2.20;;
2658;SDS011;1339;53.304;10.406;2023-03-14T02:19:25;4.82;;;2.53;;
2658;SDS011;1339;53.304;10.406;2023-03-14T02:21:56;4.20;;;2.15;;
2658;SDS011;1339;53.304;10.406;2023-03-14T02:24:30;2.28;;;2.00;;
2658;SDS011;1339;53.304;10.406;2023-03-14T02:27:02;6.60;;;2.13;;
2658;SDS011;1339;53.304;10.406;2023-03-14T02:29:29;4.35;;;2.47;;
2658;SDS011;1339;53.304;10.406;2023-03-14T02:31:57;6.95;;;2.22;;
2658;SDS011;1339;53.304;10.406;2023-03-14T02:34:24;5.07;;;2.70;;
2658;SDS011;1339;53.304;10.406;2023-03-14T02:36:51;2.50;;;2.30;;
2658;SDS011;1339;53.304;10.406;2023-03-14T02:39:19;6.63;;;2.72;;
2658;SDS011;1339;53.304;10.406;2023-03-14T02:41:48;6.10;;;2.40;;
2658;SDS011;1339;53.304;10.406;2023-03-14T02:44:16;4.63;;;2.45;;
2658;SDS011;1339;53.304;10.406;2023-03-14T02:46:43;5.10;;;2.30;;
2658;SDS011;1339;53.304;10.406;2023-03-14T02:49:11;3.67;;;2.63;;
2658;SDS011;1339;53.304;10.406;2023-03-14T02:51:38;3.88;;;2.60;;
2658;SDS011;1339;53.304;10.406;2023-03-14T02:54:06;3.80;;;2.17;;
2658;SDS011;1339;53.304;10.406;2023-03-14T02:56:33;4.40;;;2.97;;
2658;SDS011;1339;53.304;10.406;2023-03-14T02:59:02;4.10;;;2.35;;
2658;SDS011;1339;53.304;10.406;2023-03-14T03:01:30;5.85;;;2.70;;
2658;SDS011;1339;53.304;10.406;2023-03-14T03:03:57;3.50;;;3.20;;
2658;SDS011;1339;53.304;10.406;2023-03-14T03:06:24;2.90;;;2.60;;
2658;SDS011;1339;53.304;10.406;2023-03-14T03:08:51;3.25;;;2.25;;
2658;SDS011;1339;53.304;10.406;2023-03-14T03:11:19;3.85;;;2.42;;
2658;SDS011;1339;53.304;10.406;2023-03-14T03:13:46;6.07;;;2.90;;
2658;SDS011;1339;53.304;10.406;2023-03-14T03:16:13;2.90;;;2.60;;
2658;SDS011;1339;53.304;10.406;2023-03-14T03:18:41;6.63;;;2.97;;
2658;SDS011;1339;53.304;10.406;2023-03-14T03:21:08;2.95;;;2.22;;
2658;SDS011;1339;53.304;10.406;2023-03-14T03:23:36;3.72;;;3.20;;
2658;SDS011;1339;53.304;10.406;2023-03-14T03:26:03;3.47;;;2.47;;
2658;SDS011;1339;53.304;10.406;2023-03-14T03:28:30;3.75;;;2.53;;
2658;SDS011;1339;53.304;10.406;2023-03-14T03:30:57;5.97;;;2.55;;
2658;SDS011;1339;53.304;10.406;2023-03-14T03:33:24;3.45;;;2.55;;
2658;SDS011;1339;53.304;10.406;2023-03-14T03:35:52;4.43;;;2.50;;
2658;SDS011;1339;53.304;10.406;2023-03-14T03:38:19;5.20;;;3.03;;
2658;SDS011;1339;53.304;10.406;2023-03-14T03:40:46;2.67;;;2.30;;
2658;SDS011;1339;53.304;10.406;2023-03-14T03:43:13;2.25;;;2.03;;
2658;SDS011;1339;53.304;10.406;2023-03-14T03:45:40;3.00;;;2.00;;
2658;SDS011;1339;53.304;10.406;2023-03-14T03:48:07;5.60;;;3.17;;
2658;SDS011;1339;53.304;10.406;2023-03-14T03:50:34;4.50;;;2.55;;
2658;SDS011;1339;53.304;10.406;2023-03-14T03:53:02;6.40;;;2.70;;
2658;SDS011;1339;53.304;10.406;2023-03-14T03:55:29;4.97;;;2.70;;
2658;SDS011;1339;53.304;10.406;2023-03-14T03:57:56;2.65;;;2.28;;
2658;SDS011;1339;53.304;10.406;2023-03-14T04:00:23;8.25;;;2.75;;
2658;SDS011;1339;53.304;10.406;2023-03-14T04:02:50;6.55;;;2.60;;
2658;SDS011;1339;53.304;10.406;2023-03-14T04:05:17;4.78;;;2.80;;
2658;SDS011;1339;53.304;10.406;2023-03-14T04:07:44;4.88;;;2.50;;
2658;SDS011;1339;53.304;10.406;2023-03-14T04:10:12;3.78;;;2.63;;
2658;SDS011;1339;53.304;10.406;2023-03-14T04:12:39;2.95;;;2.20;;
2658;SDS011;1339;53.304;10.406;2023-03-14T04:15:07;6.60;;;1.98;;
2658;SDS011;1339;53.304;10.406;2023-03-14T04:17:34;2.97;;;2.33;;
2658;SDS011;1339;53.304;10.406;2023-03-14T04:20:01;2.80;;;2.42;;
2658;SDS011;1339;53.304;10.406;2023-03-14T04:22:29;3.85;;;2.15;;
2658;SDS011;1339;53.304;10.406;2023-03-14T04:24:56;4.75;;;2.42;;
2658;SDS011;1339;53.304;10.406;2023-03-14T04:27:24;5.25;;;2.42;;
2658;SDS011;1339;53.304;10.406;2023-03-14T04:29:51;5.65;;;2.67;;
2658;SDS011;1339;53.304;10.406;2023-03-14T04:32:18;5.20;;;2.67;;
2658;SDS011;1339;53.304;10.406;2023-03-14T04:34:45;4.10;;;3.22;;
2658;SDS011;1339;53.304;10.406;2023-03-14T04:37:12;12.25;;;3.38;;
2658;SDS011;1339;53.304;10.406;2023-03-14T04:39:39;4.28;;;2.50;;
2658;SDS011;1339;53.304;10.406;2023-03-14T04:42:06;7.00;;;4.22;;
2658;SDS011;1339;53.304;10.406;2023-03-14T04:44:35;5.15;;;2.50;;
2658;SDS011;1339;53.304;10.406;2023-03-14T04:47:02;5.03;;;2.28;;
2658;SDS011;1339;53.304;10.406;2023-03-14T04:49:29;2.88;;;2.45;;
2658;SDS011;1339;53.304;10.406;2023-03-14T04:51:56;3.67;;;2.33;;
2658;SDS011;1339;53.304;10.406;2023-03-14T04:54:23;7.30;;;2.28;;
2658;SDS011;1339;53.304;10.406;2023-03-14T04:56:50;4.70;;;1.98;;
2658;SDS011;1339;53.304;10.406;2023-03-14T04:59:17;4.82;;;1.75;;
2658;SDS011;1339;53.304;10.406;2023-03-14T05:01:45;6.70;;;2.08;;
2658;SDS011;1339;53.304;10.406;2023-03-14T05:04:13;7.47;;;2.35;;
2658;SDS011;1339;53.304;10.406;2023-03-14T05:06:40;3.88;;;1.90;;
2658;SDS011;1339;53.304;10.406;2023-03-14T05:09:07;3.30;;;2.15;;
2658;SDS011;1339;53.304;10.406;2023-03-14T05:11:35;5.07;;;2.00;;
2658;SDS011;1339;53.304;10.406;2023-03-14T05:14:02;5.35;;;1.90;;
2658;SDS011;1339;53.304;10.406;2023-03-14T05:16:28;2.30;;;1.52;;
2658;SDS011;1339;53.304;10.406;2023-03-14T05:18:57;2.25;;;1.50;;
2658;SDS011;1339;53.304;10.406;2023-03-14T05:21:26;4.88;;;1.60;;
2658;SDS011;1339;53.304;10.406;2023-03-14T05:23:53;2.75;;;1.40;;
2658;SDS011;1339;53.304;10.406;2023-03-14T05:26:20;3.97;;;1.65;;
2658;SDS011;1339;53.304;10.406;2023-03-14T05:28:47;3.63;;;1.33;;
2658;SDS011;1339;53.304;10.406;2023-03-14T05:31:14;3.85;;;1.88;;
2658;SDS011;1339;53.304;10.406;2023-03-14T05:33:41;5.85;;;3.15;;
2658;SDS011;1339;53.304;10.406;2023-03-14T05:36:09;3.47;;;1.75;;
2658;SDS011;1339;53.304;10.406;2023-03-14T05:38:36;6.45;;;2.65;;
2658;SDS011;1339;53.304;10.406;2023-03-14T05:41:03;5.88;;;1.75;;
2658;SDS011;1339;53.304;10.406;2023-03-14T05:43:30;9.20;;;2.10;;
2658;SDS011;1339;53.304;10.406;2023-03-14T05:45:57;3.45;;;1.90;;
2658;SDS011;1339;53.304;10.406;2023-03-14T05:48:24;3.53;;;1.98;;
2658;SDS011;1339;53.304;10.406;2023-03-14T05:50:54;2.67;;;1.50;;
2658;SDS011;1339;53.304;10.406;2023-03-14T05:53:22;8.25;;;4.25;;
2658;SDS011;1339;53.304;10.406;2023-03-14T05:55:50;5.68;;;1.95;;
2658;SDS011;1339;53.304;10.406;2023-03-14T05:58:17;3.85;;;2.50;;
2658;SDS011;1339;53.304;10.406;2023-03-14T06:00:44;4.22;;;2.17;;
2658;SDS011;1339;53.304;10.406;2023-03-14T06:03:11;2.50;;;2.30;;
2658;SDS011;1339;53.304;10.406;2023-03-14T06:05:38;2.10;;;2.00;;
2658;SDS011;1339;53.304;10.406;2023-03-14T06:08:05;5.25;;;2.08;;
2658;SDS011;1339;53.304;10.406;2023-03-14T06:10:35;3.33;;;2.20;;
2658;SDS011;1339;53.304;10.406;2023-03-14T06:13:02;3.92;;;2.63;;
2658;SDS011;1339;53.304;10.406;2023-03-14T06:15:29;2.83;;;2.33;;
2658;SDS011;1339;53.304;10.406;2023-03-14T06:17:57;3.90;;;2.38;;
2658;SDS011;1339;53.304;10.406;2023-03-14T06:20:24;3.75;;;2.28;;
2658;SDS011;1339;53.304;10.406;2023-03-14T06:22:51;3.40;;;3.10;;
2658;SDS011;1339;53.304;10.406;2023-03-14T06:25:18;2.80;;;2.60;;
2658;SDS011;1339;53.304;10.406;2023-03-14T06:27:47;4.40;;;1.70;;
2658;SDS011;1339;53.304;10.406;2023-03-14T06:30:14;7.55;;;2.60;;
2658;SDS011;1339;53.304;10.406;2023-03-14T06:32:41;4.95;;;1.85;;
2658;SDS011;1339;53.304;10.406;2023-03-14T06:35:08;2.22;;;2.05;;
2658;SDS011;1339;53.304;10.406;2023-03-14T06:37:35;1.90;;;1.77;;
2658;SDS011;1339;53.304;10.406;2023-03-14T06:40:03;2.90;;;2.15;;
2658;SDS011;1339;53.304;10.406;2023-03-14T06:42:32;2.03;;;1.80;;
2658;SDS011;1339;53.304;10.406;2023-03-14T06:45:00;4.25;;;2.10;;
2658;SDS011;1339;53.304;10.406;2023-03-14T06:47:27;3.40;;;1.85;;
2658;SDS011;1339;53.304;10.406;2023-03-14T06:49:54;3.90;;;2.50;;
2658;SDS011;1339;53.304;10.406;2023-03-14T06:52:21;2.78;;;2.28;;
2658;SDS011;1339;53.304;10.406;2023-03-14T06:54:48;4.32;;;2.28;;
2658;SDS011;1339;53.304;10.406;2023-03-14T06:57:15;2.65;;;2.35;;
2658;SDS011;1339;53.304;10.406;2023-03-14T06:59:42;5.57;;;2.10;;
2658;SDS011;1339;53.304;10.406;2023-03-14T07:02:11;3.38;;;1.98;;
2658;SDS011;1339;53.304;10.406;2023-03-14T07:04:38;2.40;;;1.83;;
2658;SDS011;1339;53.304;10.406;2023-03-14T07:07:05;7.18;;;2.17;;
2658;SDS011;1339;53.304;10.406;2023-03-14T07:09:32;3.50;;;1.90;;
2658;SDS011;1339;53.304;10.406;2023-03-14T07:11:59;3.08;;;2.25;;
2658;SDS011;1339;53.304;10.406;2023-03-14T07:14:26;3.97;;;2.05;;
2658;SDS011;1339;53.304;10.406;2023-03-14T07:16:53;4.28;;;1.90;;
2658;SDS011;1339;53.304;10.406;2023-03-14T07:19:22;3.38;;;2.03;;
2658;SDS011;1339;53.304;10.406;2023-03-14T07:21:49;4.70;;;2.65;;
2658;SDS011;1339;53.304;10.406;2023-03-14T07:24:16;2.20;;;1.55;;
2658;SDS011;1339;53.304;10.406;2023-03-14T07:26:43;3.58;;;2.35;;
2658;SDS011;1339;53.304;10.406;2023-03-14T07:29:10;4.07;;;2.75;;
2658;SDS011;1339;53.304;10.406;2023-03-14T07:31:37;2.70;;;2.20;;
2658;SDS011;1339;53.304;10.406;2023-03-14T07:34:04;3.58;;;2.88;;
2658;SDS011;1339;53.304;10.406;2023-03-14T07:36:32;3.30;;;2.15;;
2658;SDS011;1339;53.304;10.406;2023-03-14T07:38:59;4.60;;;2.38;;
2658;SDS011;1339;53.304;10.406;2023-03-14T07:41:26;3.10;;;2.67;;
2658;SDS011;1339;53.304;10.406;2023-03-14T07:43:53;4.43;;;2.85;;
2658;SDS011;1339;53.304;10.406;2023-03-14T07:46:20;4.93;;;3.00;;
2658;SDS011;1339;53.304;10.406;2023-03-14T07:48:47;4.50;;;2.90;;
2658;SDS011;1339;53.304;10.406;2023-03-14T07:51:14;5.35;;;2.92;;
2658;SDS011;1339;53.304;10.406;2023-03-14T07:53:42;3.47;;;3.15;;
2658;SDS011;1339;53.304;10.406;2023-03-14T07:56:10;3.22;;;3.00;;
2658;SDS011;1339;53.304;10.406;2023-03-14T07:58:37;5.40;;;3.88;;
2658;SDS011;1339;53.304;10.406;2023-03-14T08:01:04;6.53;;;3.60;;
2658;SDS011;1339;53.304;10.406;2023-03-14T08:03:31;5.60;;;3.30;;
2658;SDS011;1339;53.304;10.406;2023-03-14T08:05:58;7.75;;;3.80;;
2658;SDS011;1339;53.304;10.406;2023-03-14T08:08:25;7.25;;;3.40;;
2658;SDS011;1339;53.304;10.406;2023-03-14T08:10:54;8.63;;;3.70;;
2658;SDS011;1339;53.304;10.406;2023-03-14T08:13:21;6.15;;;3.95;;
2658;SDS011;1339;53.304;10.406;2023-03-14T08:15:50;5.95;;;4.00;;
2658;SDS011;1339;53.304;10.406;2023-03-14T08:18:17;4.80;;;2.80;;
2658;SDS011;1339;53.304;10.406;2023-03-14T08:20:44;4.00;;;3.67;;
2658;SDS011;1339;53.304;10.406;2023-03-14T08:23:11;6.03;;;3.90;;
2658;SDS011;1339;53.304;10.406;2023-03-14T08:25:38;6.85;;;3.72;;
2658;SDS011;1339;53.304;10.406;2023-03-14T08:28:06;6.35;;;3.83;;
2658;SDS011;1339;53.304;10.406;2023-03-14T08:30:33;11.55;;;4.13;;
2658;SDS011;1339;53.304;10.406;2023-03-14T08:33:00;5.93;;;4.38;;
2658;SDS011;1339;53.304;10.406;2023-03-14T08:35:27;11.07;;;3.83;;
2658;SDS011;1339;53.304;10.406;2023-03-14T08:37:54;4.22;;;3.90;;
2658;SDS011;1339;53.304;10.406;2023-03-14T08:40:21;7.28;;;4.25;;
2658;SDS011;1339;53.304;10.406;2023-03-14T08:42:48;11.10;;;4.20;;
2658;SDS011;1339;53.304;10.406;2023-03-14T08:45:17;8.18;;;4.40;;
2658;SDS011;1339;53.304;10.406;2023-03-14T08:47:44;3.88;;;3.55;;
2658;SDS011;1339;53.304;10.406;2023-03-14T08:50:12;5.15;;;3.78;;
2658;SDS011;1339;53.304;10.406;2023-03-14T08:52:39;5.22;;;4.55;;
2658;SDS011;1339;53.304;10.406;2023-03-14T08:55:06;7.03;;;3.05;;
2658;SDS011;1339;53.304;10.406;2023-03-14T08:57:33;9.77;;;3.70;;
2658;SDS011;1339;53.304;10.406;2023-03-14T09:00:02;5.38;;;3.35;;
2658;SDS011;1339;53.304;10.406;2023-03-14T09:02:36;6.30;;;4.00;;
2658;SDS011;1339;53.304;10.406;2023-03-14T09:05:03;3.45;;;3.15;;
2658;SDS011;1339;53.304;10.406;2023-03-14T09:07:31;4.15;;;2.80;;
2658;SDS011;1339;53.304;10.406;2023-03-14T09:09:57;5.32;;;3.78;;
2658;SDS011;1339;53.304;10.406;2023-03-14T09:12:24;5.07;;;3.58;;
2658;SDS011;1339;53.304;10.406;2023-03-14T09:14:51;9.90;;;3.20;;
2658;SDS011;1339;53.304;10.406;2023-03-14T09:17:19;2.97;;;2.75;;
2658;SDS011;1339;53.304;10.406;2023-03-14T09:19:47;7.00;;;4.15;;
2658;SDS011;1339;53.304;10.406;2023-03-14T09:22:14;3.05;;;2.72;;
2658;SDS011;1339;53.304;10.406;2023-03-14T09:24:41;3.88;;;2.72;;
2658;SDS011;1339;53.304;10.406;2023-03-14T09:27:08;5.05;;;2.60;;
2658;SDS011;1339;53.304;10.406;2023-03-14T09:29:35;4.10;;;2.45;;
2658;SDS011;1339;53.304;10.406;2023-03-14T09:32:02;4.65;;;2.97;;
2658;SDS011;1339;53.304;10.406;2023-03-14T09:34:29;4.10;;;2.70;;
2658;SDS011;1339;53.304;10.406;2023-03-14T09:36:57;2.17;;;2.03;;
2658;SDS011;1339;53.304;10.406;2023-03-14T09:39:24;5.90;;;2.15;;
2658;SDS011;1339;53.304;10.406;2023-03-14T09:41:51;3.30;;;2.10;;
2658;SDS011;1339;53.304;10.406;2023-03-14T09:44:19;3.20;;;2.15;;
2658;SDS011;1339;53.304;10.406;2023-03-14T09:46:50;5.95;;;2.00;;
2658;SDS011;1339;53.304;10.406;2023-03-14T09:49:19;2.53;;;1.90;;
2658;SDS011;1339;53.304;10.406;2023-03-14T09:51:47;3.95;;;1.63;;
2658;SDS011;1339;53.304;10.406;2023-03-14T09:54:22;4.40;;;1.73;;
2658;SDS011;1339;53.304;10.406;2023-03-14T09:56:51;4.28;;;1.95;;
2658;SDS011;1339;53.304;10.406;2023-03-14T09:59:18;2.65;;;1.60;;
2658;SDS011;1339;53.304;10.406;2023-03-14T10:01:45;2.90;;;1.37;;
2658;SDS011;1339;53.304;10.406;2023-03-14T10:04:12;4.87;;;1.83;;
2658;SDS011;1339;53.304;10.406;2023-03-14T10:06:41;4.60;;;1.55;;
2658;SDS011;1339;53.304;10.406;2023-03-14T10:09:08;6.90;;;1.50;;
2658;SDS011;1339;53.304;10.406;2023-03-14T10:11:38;1.50;;;1.27;;
2658;SDS011;1339;53.304;10.406;2023-03-14T10:14:06;4.67;;;1.90;;
2658;SDS011;1339;53.304;10.406;2023-03-14T10:16:34;3.77;;;1.30;;
2658;SDS011;1339;53.304;10.406;2023-03-14T10:19:02;3.40;;;1.47;;
2658;SDS011;1339;53.304;10.406;2023-03-14T10:21:30;2.85;;;1.77;;
2658;SDS011;1339;53.304;10.406;2023-03-14T10:24:07;2.53;;;1.10;;
2658;SDS011;1339;53.304;10.406;2023-03-14T10:26:34;2.40;;;1.55;;
2658;SDS011;1339;53.304;10.406;2023-03-14T10:29:03;2.55;;;1.52;;
2658;SDS011;1339;53.304;10.406;2023-03-14T10:31:45;2.95;;;1.70;;
2658;SDS011;1339;53.304;10.406;2023-03-14T10:34:15;5.30;;;2.40;;
2658;SDS011;1339;53.304;10.406;2023-03-14T10:36:42;2.50;;;2.20;;
2658;SDS011;1339;53.304;10.406;2023-03-14T10:39:21;4.32;;;2.65;;
2658;SDS011;1339;53.304;10.406;2023-03-14T10:41:50;2.90;;;2.40;;
2658;SDS011;1339;53.304;10.406;2023-03-14T10:44:19;7.05;;;2.90;;
2658;SDS011;1339;53.304;10.406;2023-03-14T10:46:52;3.05;;;2.22;;
2658;SDS011;1339;53.304;10.406;2023-03-14T10:49:23;1.45;;;1.35;;
2658;SDS011;1339;53.304;10.406;2023-03-14T10:51:52;1.70;;;1.08;;
2658;SDS011;1339;53.304;10.406;2023-03-14T10:54:20;1.02;;;0.93;;
2658;SDS011;1339;53.304;10.406;2023-03-14T10:56:55;1.92;;;1.63;;
2658;SDS011;1339;53.304;10.406;2023-03-14T10:59:24;2.95;;;1.33;;
2658;SDS011;1339;53.304;10.406;2023-03-14T11:01:52;2.17;;;1.23;;
2658;SDS011;1339;53.304;10.406;2023-03-14T11:04:24;5.00;;;1.70;;
2658;SDS011;1339;53.304;10.406;2023-03-14T11:06:58;3.03;;;1.60;;
2658;SDS011;1339;53.304;10.406;2023-03-14T11:09:30;2.50;;;2.30;;
2658;SDS011;1339;53.304;10.406;2023-03-14T11:12:00;3.42;;;3.08;;
2658;SDS011;1339;53.304;10.406;2023-03-14T11:14:31;4.38;;;3.47;;
2658;SDS011;1339;53.304;10.406;2023-03-14T11:17:02;4.43;;;4.05;;
2658;SDS011;1339;53.304;10.406;2023-03-14T11:19:45;4.50;;;4.20;;
2658;SDS011;1339;53.304;10.406;2023-03-14T11:22:14;6.97;;;6.00;;
2658;SDS011;1339;53.304;10.406;2023-03-14T11:24:48;9.98;;;6.78;;
2658;SDS011;1339;53.304;10.406;2023-03-14T11:27:17;7.03;;;6.32;;
2658;SDS011;1339;53.304;10.406;2023-03-14T11:29:49;6.88;;;6.03;;
2658;SDS011;1339;53.304;10.406;2023-03-14T11:32:20;6.28;;;3.90;;
2658;SDS011;1339;53.304;10.406;2023-03-14T11:34:50;1.90;;;1.80;;
2658;SDS011;1339;53.304;10.406;2023-03-14T11:37:21;1.23;;;1.13;;
2658;SDS011;1339;53.304;10.406;2023-03-14T11:39:51;1.55;;;1.45;;
2658;SDS011;1339;53.304;10.406;2023-03-14T11:42:21;2.30;;;1.45;;
2658;SDS011;1339;53.304;10.406;2023-03-14T11:44:50;2.42;;;1.40;;
2658;SDS011;1339;53.304;10.406;2023-03-14T11:47:19;1.27;;;1.17;;
2658;SDS011;1339;53.304;10.406;2023-03-14T11:49:47;1.00;;;0.80;;
2658;SDS011;1339;53.304;10.406;2023-03-14T11:52:16;1.30;;;1.00;;
2658;SDS011;1339;53.304;10.406;2023-03-14T11:54:48;2.47;;;1.15;;
2658;SDS011;1339;53.304;10.406;2023-03-14T11:57:17;2.95;;;1.10;;
2658;SDS011;1339;53.304;10.406;2023-03-14T11:59:46;1.83;;;1.13;;
2658;SDS011;1339;53.304;10.406;2023-03-14T12:02:17;4.25;;;1.25;;
2658;SDS011;1339;53.304;10.406;2023-03-14T12:04:51;1.35;;;1.10;;
2658;SDS011;1339;53.304;10.406;2023-03-14T12:07:19;1.13;;;0.90;;
2658;SDS011;1339;53.304;10.406;2023-03-14T12:09:47;1.65;;;1.20;;
2658;SDS011;1339;53.304;10.406;2023-03-14T12:12:16;1.73;;;1.00;;
2658;SDS011;1339;53.304;10.406;2023-03-14T12:14:45;2.72;;;1.30;;
2658;SDS011;1339;53.304;10.406;2023-03-14T12:17:19;1.20;;;0.90;;
2658;SDS011;1339;53.304;10.406;2023-03-14T12:19:47;0.82;;;0.80;;
2658;SDS011;1339;53.304;10.406;2023-03-14T12:22:24;2.90;;;0.85;;
2658;SDS011;1339;53.304;10.406;2023-03-14T12:24:53;0.90;;;0.80;;
2658;SDS011;1339;53.304;10.406;2023-03-14T12:27:41;3.35;;;1.30;;
2658;SDS011;1339;53.304;10.406;2023-03-14T12:30:14;4.10;;;1.65;;
2658;SDS011;1339;53.304;10.406;2023-03-14T12:32:43;7.85;;;1.40;;
2658;SDS011;1339;53.304;10.406;2023-03-14T12:35:35;2.15;;;1.20;;
2658;SDS011;1339;53.304;10.406;2023-03-14T12:38:02;1.77;;;1.10;;
2658;SDS011;1339;53.304;10.406;2023-03-14T12:40:30;1.77;;;1.00;;
2658;SDS011;1339;53.304;10.406;2023-03-14T12:42:59;1.42;;;1.33;;
2658;SDS011;1339;53.304;10.406;2023-03-14T12:45:27;3.05;;;2.35;;
2658;SDS011;1339;53.304;10.406;2023-03-14T12:48:00;2.05;;;0.90;;
2658;SDS011;1339;53.304;10.406;2023-03-14T12:50:33;4.53;;;3.55;;
2658;SDS011;1339;53.304;10.406;2023-03-14T12:53:14;6.60;;;1.50;;
2658;SDS011;1339;53.304;10.406;2023-03-14T12:55:45;6.00;;;1.35;;
2658;SDS011;1339;53.304;10.406;2023-03-14T12:58:15;3.25;;;1.50;;
2658;SDS011;1339;53.304;10.406;2023-03-14T13:00:44;8.82;;;2.75;;
2658;SDS011;1339;53.304;10.406;2023-03-14T13:03:17;2.75;;;1.38;;
2658;SDS011;1339;53.304;10.406;2023-03-14T13:05:54;9.45;;;2.22;;
2658;SDS011;1339;53.304;10.406;2023-03-14T13:08:33;4.57;;;1.15;;
2658;SDS011;1339;53.304;10.406;2023-03-14T13:11:01;7.15;;;1.50;;
2658;SDS011;1339;53.304;10.406;2023-03-14T13:13:28;7.22;;;1.52;;
2658;SDS011;1339;53.304;10.406;2023-03-14T13:15:55;5.30;;;1.23;;
2658;SDS011;1339;53.304;10.406;2023-03-14T13:18:26;3.45;;;1.60;;
2658;SDS011;1339;53.304;10.406;2023-03-14T13:20:57;6.28;;;1.45;;
2658;SDS011;1339;53.304;10.406;2023-03-14T13:23:25;5.18;;;1.83;;
2658;SDS011;1339;53.304;10.406;2023-03-14T13:25:54;3.63;;;1.25;;
2658;SDS011;1339;53.304;10.406;2023-03-14T13:28:21;2.78;;;1.70;;
2658;SDS011;1339;53.304;10.406;2023-03-14T13:30:49;5.35;;;1.55;;
2658;SDS011;1339;53.304;10.406;2023-03-14T13:33:17;2.42;;;1.65;;
2658;SDS011;1339;53.304;10.406;2023-03-14T13:35:45;7.82;;;1.70;;
2658;SDS011;1339;53.304;10.406;2023-03-14T13:38:13;10.27;;;2.10;;
2658;SDS011;1339;53.304;10.406;2023-03-14T13:40:42;5.57;;;1.35;;
2658;SDS011;1339;53.304;10.406;2023-03-14T13:43:15;4.70;;;2.20;;
2658;SDS011;1339;53.304;10.406;2023-03-14T13:45:48;8.98;;;3.67;;
2658;SDS011;1339;53.304;10.406;2023-03-14T13:48:15;7.22;;;3.08;;
2658;SDS011;1339;53.304;10.406;2023-03-14T13:50:49;12.73;;;3.13;;
2658;SDS011;1339;53.304;10.406;2023-03-14T13:53:16;5.75;;;2.30;;
2658;SDS011;1339;53.304;10.406;2023-03-14T13:55:43;5.00;;;2.40;;
2658;SDS011;1339;53.304;10.406;2023-03-14T13:58:11;9.63;;;2.85;;
2658;SDS011;1339;53.304;10.406;2023-03-14T14:00:41;4.50;;;2.25;;
2658;SDS011;1339;53.304;10.406;2023-03-14T14:03:08;13.35;;;3.35;;
2658;SDS011;1339;53.304;10.406;2023-03-14T14:05:38;15.07;;;3.65;;
2658;SDS011;1339;53.304;10.406;2023-03-14T14:08:06;11.52;;;2.60;;
2658;SDS011;1339;53.304;10.406;2023-03-14T14:10:33;18.15;;;3.50;;
2658;SDS011;1339;53.304;10.406;2023-03-14T14:13:03;8.32;;;3.13;;
2658;SDS011;1339;53.304;10.406;2023-03-14T14:15:31;6.82;;;2.00;;
2658;SDS011;1339;53.304;10.406;2023-03-14T14:18:00;8.95;;;2.20;;
2658;SDS011;1339;53.304;10.406;2023-03-14T14:20:28;5.22;;;1.70;;
2658;SDS011;1339;53.304;10.406;2023-03-14T14:22:57;6.72;;;1.90;;
2658;SDS011;1339;53.304;10.406;2023-03-14T14:25:25;3.72;;;3.25;;
2658;SDS011;1339;53.304;10.406;2023-03-14T14:27:52;8.88;;;1.98;;
2658;SDS011;1339;53.304;10.406;2023-03-14T14:30:26;4.05;;;1.60;;
2658;SDS011;1339;53.304;10.406;2023-03-14T14:32:54;4.75;;;2.20;;
2658;SDS011;1339;53.304;10.406;2023-03-14T14:35:35;6.60;;;3.92;;
2658;SDS011;1339;53.304;10.406;2023-03-14T14:38:02;8.05;;;2.25;;
2658;SDS011;1339;53.304;10.406;2023-03-14T14:40:30;9.23;;;1.90;;
2658;SDS011;1339;53.304;10.406;2023-03-14T14:43:02;9.65;;;2.33;;
2658;SDS011;1339;53.304;10.406;2023-03-14T14:45:29;6.82;;;1.83;;
2658;SDS011;1339;53.304;10.406;2023-03-14T14:47:57;5.95;;;2.03;;
2658;SDS011;1339;53.304;10.406;2023-03-14T14:50:29;5.28;;;2.22;;
2658;SDS011;1339;53.304;10.406;2023-03-14T14:52:58;6.60;;;2.53;;
2658;SDS011;1339;53.304;10.406;2023-03-14T14:55:28;5.90;;;1.90;;
2658;SDS011;1339;53.304;10.406;2023-03-14T14:57:55;10.00;;;2.72;;
2658;SDS011;1339;53.304;10.406;2023-03-14T15:00:23;5.97;;;1.83;;
2658;SDS011;1339;53.304;10.406;2023-03-14T15:02:51;11.02;;;2.50;;
2658;SDS011;1339;53.304;10.406;2023-03-14T15:05:19;5.15;;;2.00;;
2658;SDS011;1339;53.304;10.406;2023-03-14T15:07:46;8.65;;;2.00;;
2658;SDS011;1339;53.304;10.406;2023-03-14T15:10:15;6.43;;;2.42;;